Flight Track Log - Related Links

Times and Time Zones

All times are in EDT time to prevent confusion due to time zone crossing. See the C-FNVU flight status page for this flight to view local times or setup timezone preferences in your user account.

Time Position Orientation Groundspeed Altitude Reporting Facility
EDT Latitude Longitude Course Direction KTS MPH feet Rate Location/Type
Wed 08:08:31 AM 28.4167 -81.3167 67° East 179 206 500  Level Orlando TRACON
Wed 08:13:07 AM 28.4667 -81.1833 345° North 287 330 10,100 1,902 Climbing Orlando TRACON
Wed 08:14:59 AM 28.6297 -81.2344 344° North 333 383 12,800 1,674 Climbing Jacksonville Center
Wed 08:15:59 AM 28.7303 -81.2683 344° North 353 406 14,900 2,000 Climbing Jacksonville Center
Wed 08:16:59 AM 28.8308 -81.3022 345° North 367 422 16,800 1,850 Climbing Jacksonville Center
Wed 08:17:59 AM 28.9378 -81.3361 344° North 384 442 18,600 1,750 Climbing Jacksonville Center
Wed 08:18:59 AM 29.0467 -81.3725 350° North 395 455 20,300 1,750 Climbing Jacksonville Center
Wed 08:19:59 AM 29.1597 -81.3944 355° North 400 460 22,100 1,500 Climbing Jacksonville Center
Wed 08:20:59 AM 29.2747 -81.4069 357° North 410 472 23,300 1,150 Climbing Jacksonville Center
Wed 08:21:59 AM 29.3978 -81.4147 352° North 420 483 24,400 1,150 Climbing Jacksonville Center
Wed 08:22:59 AM 29.5169 -81.4344 356° North 430 495 25,600 1,150 Climbing Jacksonville Center
Wed 08:23:59 AM 29.6425 -81.4444 355° North 435 501 26,700 1,000 Climbing Jacksonville Center
Wed 08:24:59 AM 29.7678 -81.4569 355° North 446 513 27,600 850 Climbing Jacksonville Center
Wed 08:25:59 AM 29.8975 -81.4694 355° North 451 519 28,400 1,000 Climbing Jacksonville Center
Wed 08:26:59 AM 30.0311 -81.4842 355° North 466 536 29,600 1,300 Climbing Jacksonville Center
Wed 08:27:59 AM 30.1567 -81.4969 356° North 466 536 31,000 1,200 Climbing Jacksonville Center
Wed 08:28:59 AM 30.2967 -81.5092 North 459 528 32,000 1,050 Climbing Jacksonville Center
Wed 08:29:59 AM 30.4281 -81.5025 North 464 534 33,100 950 Climbing Jacksonville Center
Wed 08:30:59 AM 30.5533 -81.4933 North 458 527 33,900 750 Climbing Jacksonville Center
Wed 08:31:59 AM 30.6806 -81.4844 North 458 527 34,600 550 Climbing Jacksonville Center
Wed 08:32:59 AM 30.8078 -81.4728 North 458 527 35,000 200 Climbing Jacksonville Center
Wed 08:33:59 AM 30.9369 -81.4589 North 458 527 35,000  Level Jacksonville Center
Wed 08:34:59 AM 31.0600 -81.4447 North 458 527 35,000  Level Jacksonville Center
Wed 08:35:59 AM 31.1853 -81.4306 North 452 520 35,000  Level Jacksonville Center
Wed 08:36:59 AM 31.3122 -81.4142 North 452 520 35,000  Level Jacksonville Center
Wed 08:37:59 AM 31.4397 -81.4047 North 452 520 35,000  Level Jacksonville Center
Wed 08:38:59 AM 31.5647 -81.3906 North 458 527 35,000  Level Jacksonville Center
Wed 08:39:59 AM 31.6772 -81.3789 North 453 521 35,000  Level Jacksonville Center
Wed 08:40:59 AM 31.8169 -81.3619 North 453 521 35,000 -50 Level Jacksonville Center
Wed 08:41:59 AM 31.9294 -81.3481 North 453 521 34,900 -50 Descending Jacksonville Center
Wed 08:42:59 AM 32.0567 -81.3383 North 453 521 34,900 50 Level Jacksonville Center
Wed 08:43:59 AM 32.1819 -81.3242 North 453 521 35,000 50 Climbing Jacksonville Center
Wed 08:44:59 AM 32.3111 -81.3069 North 453 521 35,000  Level Jacksonville Center
Wed 08:45:59 AM 32.4403 -81.2950 North 466 536 35,000  Level Jacksonville Center
Wed 08:46:59 AM 32.5758 -81.2753 North 461 531 35,000 -50 Level Jacksonville Center
Wed 08:47:59 AM 32.6925 -81.2633 North 461 531 34,900 -50 Descending Jacksonville Center
Wed 08:48:59 AM 32.8197 -81.2489 North 461 531 34,900  Level Jacksonville Center
Wed 08:49:59 AM 32.9428 -81.2317 North 456 525 34,900 50 Level Jacksonville Center
Wed 08:50:59 AM 33.0719 -81.2169 North 461 531 35,000 50 Climbing Jacksonville Center
Wed 08:51:59 AM 33.1989 -81.1997 North 461 531 35,000  Level Jacksonville Center
Wed 08:52:59 AM 33.3219 -81.1847 North 455 524 35,000  Level Jacksonville Center
Wed 08:53:59 AM 33.4511 -81.1700 North 455 524 35,000 -50 Level Jacksonville Center
Wed 08:54:59 AM 33.5742 -81.1550 North 455 524 34,900 -50 Descending Jacksonville Center
Wed 08:55:59 AM 33.7011 -81.1400 North 455 524 34,900  Level Jacksonville Center
Wed 08:56:59 AM 33.8281 -81.1225 North 455 524 34,900 50 Level Jacksonville Center
Wed 08:57:59 AM 33.9531 -81.1100 North 455 524 35,000 34 Climbing Jacksonville Center
Wed 08:59:53 AM 34.2094 -81.0772 North 461 531 35,000  Level Atlanta Center
Wed 09:00:53 AM 34.3364 -81.0628 North 458 527 35,000 50 Level Atlanta Center
Wed 09:01:53 AM 34.4528 -81.0486 North 464 534 35,100 350 Climbing Atlanta Center
Wed 09:02:53 AM 34.5839 -81.0289 10° North 466 536 35,700 600 Climbing Atlanta Center
Wed 09:03:53 AM 34.7125 -81.0014 10° North 466 536 36,300 650 Climbing Atlanta Center
Wed 09:04:53 AM 34.8411 -80.9739 11° North 466 536 37,000 350 Climbing Atlanta Center
Wed 09:05:53 AM 34.9697 -80.9439 North 459 528 37,000  Level Atlanta Center
Wed 09:06:53 AM 35.0986 -80.9189 North 465 535 37,000  Level Atlanta Center
Wed 09:07:53 AM 35.2272 -80.8936 10° North 460 529 37,000  Level Atlanta Center
Wed 09:08:53 AM 35.3558 -80.8658 10° North 466 536 37,000  Level Atlanta Center
Wed 09:09:53 AM 35.4847 -80.8378 10° North 466 536 37,000  Level Atlanta Center
Wed 09:10:53 AM 35.6175 -80.8097 North 466 536 37,000 50 Level Atlanta Center
Wed 09:11:53 AM 35.7503 -80.7839 North 466 536 37,100  Climbing Atlanta Center
Wed 09:12:53 AM 35.8914 -80.7553 North 466 536 37,000 -50 Descending Atlanta Center
Wed 09:13:53 AM 36.0242 -80.7294 North 466 536 37,000  Level Atlanta Center
Wed 09:14:53 AM 36.1569 -80.7033 10° North 479 551 37,000  Level Atlanta Center
Wed 09:15:53 AM 36.2625 -80.6808 North 485 558 37,000  Level Atlanta Center
Wed 09:16:53 AM 36.4222 -80.6483 10° North 485 558 37,000  Level Atlanta Center
Wed 09:17:54 AM 36.5592 -80.6194 10° North 485 558 37,000  Level Atlanta Center
Wed 09:18:53 AM 36.6897 -80.5906 North 485 558 37,000  Level Atlanta Center
Wed 09:21:07 AM 36.9806 -80.5319 North 483 556 37,000  Level Washington Center
Wed 09:22:05 AM 37.1131 -80.5067 North 483 556 37,000  Level Washington Center
Wed 09:23:06 AM 37.2475 -80.4789 North 488 562 37,000  Level Washington Center
Wed 09:24:06 AM 37.3822 -80.4533 10° North 488 562 37,000  Level Washington Center
Wed 09:25:05 AM 37.5064 -80.4247 North 488 562 37,000  Level Washington Center
Wed 09:26:05 AM 37.6431 -80.3994 North 488 562 37,000  Level Washington Center
Wed 09:27:07 AM 37.7778 -80.3711 11° North 488 562 37,000  Level Washington Center
Wed 09:28:07 AM 37.9147 -80.3378 North 488 562 37,000  Level Washington Center
Wed 09:29:05 AM 38.0492 -80.3119 10° North 488 562 37,000  Level Washington Center
Wed 09:30:06 AM 38.2006 -80.2767 North 488 562 37,000  Level Washington Center
Wed 09:31:07 AM 38.3372 -80.2481 North 488 562 37,000  Level Washington Center
Wed 09:32:07 AM 38.4761 -80.2197 10° North 488 562 37,000  Level Washington Center
Wed 09:33:07 AM 38.6106 -80.1908 10° North 488 562 37,000  Level Washington Center
Wed 09:34:05 AM 38.7475 -80.1594 11° North 488 562 37,000  Level Washington Center
Wed 09:36:03 AM 39.0072 -80.0942 10° North 492 566 37,000  Level Cleveland Center
Wed 09:37:03 AM 39.1447 -80.0639 10° North 492 566 37,000  Level Cleveland Center
Wed 09:38:03 AM 39.2800 -80.0333 10° North 497 572 37,000  Level Cleveland Center
Wed 09:39:03 AM 39.4175 -80.0028 10° North 497 572 37,000  Level Cleveland Center
Wed 09:40:03 AM 39.5547 -79.9719 10° North 497 572 37,000  Level Cleveland Center
Wed 09:41:03 AM 39.6922 -79.9411 10° North 497 572 37,000  Level Cleveland Center
Wed 09:42:03 AM 39.8317 -79.9100 10° North 504 580 37,000  Level Cleveland Center
Wed 09:43:03 AM 39.9650 -79.8789 10° North 504 580 37,000  Level Cleveland Center
Wed 09:44:03 AM 40.1003 -79.8475 10° North 499 574 37,000  Level Cleveland Center
Wed 09:45:03 AM 40.2356 -79.8161 11° North 499 574 37,000  Level Cleveland Center
Wed 09:46:03 AM 40.3708 -79.7819 North 494 568 37,000  Level Cleveland Center
Wed 09:47:03 AM 40.5061 -79.7531 11° North 494 568 37,000  Level Cleveland Center
Wed 09:48:03 AM 40.6433 -79.7183 10° North 494 568 37,000 -350 Level Cleveland Center
Wed 09:49:03 AM 40.7828 -79.6864 North 500 575 36,300 -900 Descending Cleveland Center
Wed 09:50:03 AM 40.9181 -79.6572 11° North 500 575 35,200 -650 Descending Cleveland Center
Wed 09:51:03 AM 41.0264 -79.6281 29° Northeast 500 575 35,000 -100 Descending Cleveland Center
Wed 09:52:03 AM 41.1775 -79.5183 34° Northeast 500 575 35,000 -400 Level Cleveland Center
Wed 09:53:03 AM 41.2975 -79.4114 15° North 507 583 34,200 -500 Descending Cleveland Center
Wed 09:54:03 AM 41.4469 -79.3586 North 508 585 34,000 -100 Descending Cleveland Center
Wed 09:55:03 AM 41.5864 -79.3478 North 492 566 34,000  Level Cleveland Center
Wed 09:56:03 AM 41.7261 -79.3339 North 492 566 34,000 -550 Level Cleveland Center
Wed 09:57:03 AM 41.8656 -79.3228 North 498 573 32,900 -1,250 Descending Cleveland Center
Wed 09:58:03 AM 42.0072 -79.3117 North 498 573 31,500 -1,400 Descending Cleveland Center
Wed 09:59:03 AM 42.1467 -79.3033 North 498 573 30,100 -1,200 Descending Cleveland Center
Wed 10:00:03 AM 42.2864 -79.2922 North 498 573 29,100 -1,500 Descending Cleveland Center
Wed 10:01:03 AM 42.4153 -79.2811 North 487 560 27,100 -2,000 Descending Cleveland Center
Wed 10:02:03 AM 42.5467 -79.2783 356° North 470 541 25,100 -2,100 Descending Cleveland Center
Wed 10:03:03 AM 42.6678 -79.2900 356° North 445 512 22,900 -2,050 Descending Cleveland Center
Wed 10:04:03 AM 42.7844 -79.3017 355° North 429 494 21,000 -1,900 Descending Cleveland Center
Wed 10:05:03 AM 42.8908 -79.3136 21° North 407 468 19,100 -1,980 Descending Cleveland Center
Wed 10:05:43 AM 42.9500 -79.2833 21° North 400 460 17,700 -2,100 Descending Toronto Center

Login

Don't have an account? Register now (free) for customized features, flight alerts, and more!